createdAt,value
2023-05-09T00:00:57.988Z,11.50
2023-05-09T00:06:03.086Z,11.60
2023-05-09T00:11:06.626Z,11.52
2023-05-09T00:16:10.462Z,11.38
2023-05-09T00:21:15.519Z,12.02
2023-05-09T00:26:19.133Z,10.00
2023-05-09T00:31:23.820Z,11.00
2023-05-09T00:36:28.597Z,11.75
2023-05-09T00:41:31.999Z,11.45
2023-05-09T00:46:35.524Z,11.65
2023-05-09T00:51:42.190Z,19.23
2023-05-09T00:56:46.203Z,18.40
2023-05-09T01:01:49.680Z,14.60
2023-05-09T01:07:02.708Z,14.20
2023-05-09T01:12:14.784Z,15.93
2023-05-09T01:17:27.089Z,13.63
2023-05-09T01:22:36.038Z,13.23
2023-05-09T01:27:47.347Z,12.57
2023-05-09T01:32:54.974Z,12.35
2023-05-09T01:37:59.868Z,12.15
2023-05-09T01:43:08.363Z,12.77
2023-05-09T01:48:14.603Z,12.00
2023-05-09T01:53:18.699Z,12.00
2023-05-09T01:58:23.598Z,14.40
2023-05-09T02:03:28.791Z,12.85
2023-05-09T02:08:32.565Z,16.02
2023-05-09T02:13:38.328Z,13.95
2023-05-09T02:18:43.161Z,15.00
2023-05-09T02:23:46.731Z,14.93
2023-05-09T02:28:52.010Z,20.92
2023-05-09T02:33:57.889Z,15.07
2023-05-09T02:39:02.196Z,16.55
2023-05-09T02:44:06.301Z,14.30
2023-05-09T02:49:19.565Z,16.85
2023-05-09T02:54:30.622Z,17.27
2023-05-09T02:59:34.316Z,16.02
2023-05-09T03:04:41.178Z,17.80
2023-05-09T03:09:44.703Z,17.73
2023-05-09T03:14:48.705Z,15.80
2023-05-09T03:19:53.602Z,17.65
2023-05-09T03:24:57.556Z,17.00
2023-05-09T03:30:01.111Z,18.85
2023-05-09T03:35:06.613Z,17.83
2023-05-09T03:40:11.208Z,21.10
2023-05-09T03:45:25.028Z,15.60
2023-05-09T03:50:30.332Z,16.30
2023-05-09T03:55:35.413Z,18.50
2023-05-09T04:00:39.318Z,17.85
2023-05-09T04:05:50.145Z,17.73
2023-05-09T04:11:03.429Z,17.23
2023-05-09T04:16:07.285Z,15.80
2023-05-09T04:21:12.849Z,16.02
2023-05-09T04:26:18.262Z,16.77
2023-05-09T04:31:26.468Z,17.58
2023-05-09T04:36:31.851Z,17.27
2023-05-09T04:41:35.755Z,15.95
2023-05-09T04:46:39.516Z,16.02
2023-05-09T04:51:45.229Z,18.88
2023-05-09T04:56:50.603Z,17.67
2023-05-09T05:01:54.839Z,18.70
2023-05-09T05:06:59.859Z,17.38
2023-05-09T05:12:09.134Z,18.50
2023-05-09T05:17:13.804Z,19.83
2023-05-09T05:22:18.664Z,21.23
2023-05-09T05:27:23.669Z,18.80
2023-05-09T05:32:28.103Z,19.33
2023-05-09T05:37:33.275Z,18.92
2023-05-09T05:42:37.623Z,18.33
2023-05-09T05:47:41.372Z,20.80
2023-05-09T05:52:46.850Z,20.77
2023-05-09T05:57:52.327Z,19.48
2023-05-09T06:02:56.569Z,19.10
2023-05-09T06:08:11.450Z,17.92
2023-05-09T06:13:14.990Z,21.80
2023-05-09T06:18:23.802Z,20.35
2023-05-09T06:23:28.592Z,21.60
2023-05-09T06:28:32.088Z,18.65
2023-05-09T06:33:35.471Z,22.23
2023-05-09T06:38:40.849Z,19.10
2023-05-09T06:43:44.302Z,19.45
2023-05-09T06:48:48.142Z,23.20
2023-05-09T06:53:53.263Z,20.42
2023-05-09T06:58:56.804Z,21.48
2023-05-09T07:04:00.305Z,19.42
2023-05-09T07:09:05.412Z,19.17
2023-05-09T07:14:08.771Z,18.95
2023-05-09T07:19:12.539Z,22.60
2023-05-09T07:24:17.428Z,19.48
2023-05-09T07:29:20.872Z,21.38
2023-05-09T07:34:25.383Z,17.13
2023-05-09T07:39:30.288Z,19.05
2023-05-09T07:44:33.635Z,20.17
2023-05-09T07:49:37.236Z,16.65
2023-05-09T07:54:42.071Z,17.35
2023-05-09T07:59:45.533Z,18.00
2023-05-09T08:04:49.346Z,16.73
2023-05-09T08:09:54.143Z,16.88
2023-05-09T08:14:57.551Z,15.15
2023-05-09T08:20:01.141Z,15.75
2023-05-09T08:25:06.661Z,15.38
2023-05-09T08:30:11.018Z,15.48
2023-05-09T08:35:14.802Z,17.42
2023-05-09T08:40:20.121Z,15.35
2023-05-09T08:45:27.596Z,13.63
2023-05-09T08:50:31.618Z,15.68
2023-05-09T08:55:36.555Z,13.35
2023-05-09T09:00:42.381Z,11.55
2023-05-09T09:05:47.849Z,9.70
2023-05-09T09:10:53.167Z,10.63
2023-05-09T09:16:00.233Z,10.75
2023-05-09T09:21:08.134Z,11.70
2023-05-09T09:26:13.343Z,11.18
2023-05-09T09:31:24.347Z,10.45
2023-05-09T09:36:29.072Z,9.98
2023-05-09T09:41:35.203Z,10.80
2023-05-09T09:46:46.715Z,11.25
2023-05-09T09:51:54.877Z,10.13
2023-05-09T09:56:59.785Z,10.35
2023-05-09T10:02:07.646Z,8.82
2023-05-09T10:07:14.819Z,10.52
2023-05-09T10:12:23.494Z,10.13
2023-05-09T10:17:27.750Z,8.98
2023-05-09T10:22:33.404Z,8.65
2023-05-09T10:27:41.234Z,7.38
2023-05-09T10:32:50.603Z,7.63
2023-05-09T10:37:57.498Z,7.40
2023-05-09T10:43:02.893Z,7.00
2023-05-09T10:48:09.002Z,7.15
2023-05-09T10:53:14.511Z,7.40
2023-05-09T10:58:27.506Z,6.47
2023-05-09T11:03:54.596Z,8.20
2023-05-09T11:08:58.105Z,8.57
2023-05-09T11:14:03.212Z,6.43
2023-05-09T11:19:07.059Z,7.95
2023-05-09T11:24:17.963Z,8.52
2023-05-09T11:29:28.109Z,7.45
2023-05-09T11:34:31.592Z,7.97
2023-05-09T11:39:35.100Z,8.32
2023-05-09T11:44:41.141Z,7.70
2023-05-09T11:49:44.702Z,7.22
2023-05-09T11:54:48.643Z,8.30
2023-05-09T11:59:54.221Z,7.05
2023-05-09T12:04:57.800Z,6.78
2023-05-09T12:10:02.840Z,7.25
2023-05-09T12:15:10.903Z,6.47
2023-05-09T12:20:14.902Z,6.55
2023-05-09T12:25:18.503Z,5.55
2023-05-09T12:30:23.737Z,5.00
2023-05-09T12:35:27.184Z,4.30
2023-05-09T12:40:30.607Z,4.43
2023-05-09T12:45:35.484Z,3.38
2023-05-09T12:50:38.909Z,3.50
2023-05-09T12:55:42.387Z,3.15
2023-05-09T13:00:47.503Z,2.92
2023-05-09T13:05:58.896Z,2.50
2023-05-09T13:11:14.804Z,4.82
2023-05-09T13:16:20.095Z,5.60
2023-05-09T13:21:23.479Z,4.05
2023-05-09T13:26:28.356Z,2.50
2023-05-09T13:31:33.095Z,6.13
2023-05-09T13:36:36.515Z,2.97
2023-05-09T13:41:39.919Z,2.47
2023-05-09T13:46:44.791Z,2.72
2023-05-09T13:51:48.665Z,2.15
2023-05-09T13:56:52.882Z,1.65
2023-05-09T14:02:00.018Z,1.52
2023-05-09T14:07:04.893Z,1.67
2023-05-09T14:12:10.115Z,1.90
2023-05-09T14:17:15.060Z,2.83
2023-05-09T14:22:18.492Z,1.60
2023-05-09T14:27:21.945Z,1.95
2023-05-09T14:32:27.205Z,2.65
2023-05-09T14:37:30.614Z,1.58
2023-05-09T14:42:34.076Z,2.50
2023-05-09T14:47:38.978Z,1.60
2023-05-09T14:52:44.081Z,1.30
2023-05-09T14:57:47.623Z,1.55
2023-05-09T15:02:52.400Z,2.60
2023-05-09T15:07:55.870Z,1.45
2023-05-09T15:12:59.287Z,1.67
2023-05-09T15:18:04.122Z,1.25
2023-05-09T15:23:08.542Z,1.48
2023-05-09T15:28:12.173Z,1.52
2023-05-09T15:33:17.655Z,3.05
2023-05-09T15:38:21.154Z,2.08
2023-05-09T15:43:24.651Z,1.23
2023-05-09T15:48:31.826Z,1.45
2023-05-09T15:53:35.368Z,3.22
2023-05-09T15:58:39.111Z,1.40
2023-05-09T16:03:44.117Z,1.30
2023-05-09T16:08:47.688Z,2.95
2023-05-09T16:13:51.208Z,2.20
2023-05-09T16:18:56.130Z,4.25
2023-05-09T16:24:00.191Z,1.10
2023-05-09T16:29:03.698Z,1.92
2023-05-09T16:34:08.597Z,2.22
2023-05-09T16:39:11.986Z,1.40
2023-05-09T16:44:15.541Z,2.97
2023-05-09T16:49:20.399Z,1.00
2023-05-09T16:54:23.720Z,1.27
2023-05-09T16:59:27.249Z,0.75
2023-05-09T17:04:32.093Z,1.27
2023-05-09T17:09:43.660Z,0.70
2023-05-09T17:14:48.069Z,1.00
2023-05-09T17:19:55.870Z,2.80
2023-05-09T17:24:59.518Z,1.63
2023-05-09T17:30:04.091Z,1.80
2023-05-09T17:35:10.218Z,1.92
2023-05-09T17:40:15.709Z,3.53
2023-05-09T17:45:20.678Z,4.57
2023-05-09T17:50:25.672Z,4.50
2023-05-09T17:55:29.160Z,4.00
2023-05-09T18:00:32.635Z,2.60
2023-05-09T18:05:37.452Z,1.90
2023-05-09T18:10:41.478Z,2.08
2023-05-09T18:15:45.301Z,1.60
2023-05-09T18:20:51.458Z,1.85
2023-05-09T18:25:56.044Z,1.65
2023-05-09T18:31:01.400Z,2.30
2023-05-09T18:36:07.104Z,1.20
2023-05-09T18:41:11.983Z,2.10
2023-05-09T18:46:18.112Z,3.15
2023-05-09T18:51:23.148Z,2.05
2023-05-09T18:56:26.593Z,2.55
2023-05-09T19:01:30.262Z,2.03
2023-05-09T19:06:35.183Z,1.83
2023-05-09T19:11:38.676Z,2.75
2023-05-09T19:16:42.371Z,1.63
2023-05-09T19:21:49.041Z,1.58
2023-05-09T19:26:53.476Z,4.20
2023-05-09T19:31:58.267Z,1.70
2023-05-09T19:37:03.107Z,1.50
2023-05-09T19:42:06.539Z,2.10
2023-05-09T19:47:10.141Z,1.58
2023-05-09T19:52:15.018Z,4.55
2023-05-09T19:57:18.726Z,2.00
2023-05-09T20:02:22.285Z,2.25
2023-05-09T20:07:27.221Z,2.70
2023-05-09T20:12:30.761Z,1.77
2023-05-09T20:17:34.281Z,2.63
2023-05-09T20:22:40.788Z,2.15
2023-05-09T20:27:57.475Z,2.13
2023-05-09T20:33:01.296Z,1.75
2023-05-09T20:38:06.280Z,2.03
2023-05-09T20:43:09.811Z,1.80
2023-05-09T20:48:13.738Z,2.45
2023-05-09T20:53:22.421Z,2.05
2023-05-09T20:58:26.153Z,3.20
2023-05-09T21:03:29.787Z,4.60
2023-05-09T21:08:34.708Z,1.42
2023-05-09T21:13:38.103Z,3.03
2023-05-09T21:19:07.155Z,2.15
2023-05-09T21:24:12.011Z,1.02
2023-05-09T21:29:15.589Z,2.90
2023-05-09T21:34:21.217Z,1.35
2023-05-09T21:40:29.184Z,1.48
2023-05-09T21:45:46.544Z,1.75
2023-05-09T21:50:49.974Z,1.40
2023-05-09T21:55:54.801Z,1.25
2023-05-09T22:00:58.433Z,1.75
2023-05-09T22:06:01.804Z,2.20
2023-05-09T22:11:07.738Z,1.83
2023-05-09T22:16:11.728Z,1.30
2023-05-09T22:21:15.218Z,3.42
2023-05-09T22:26:20.175Z,1.17
2023-05-09T22:31:23.776Z,1.95
2023-05-09T22:36:27.404Z,2.42
2023-05-09T22:41:32.334Z,1.98
2023-05-09T22:46:35.838Z,0.80
2023-05-09T22:51:39.334Z,1.60
2023-05-09T22:56:44.396Z,0.77
2023-05-09T23:01:47.860Z,0.95
2023-05-09T23:06:51.267Z,0.73
2023-05-09T23:11:56.102Z,0.80
2023-05-09T23:16:59.559Z,2.55
2023-05-09T23:22:03.037Z,1.55
2023-05-09T23:27:07.870Z,1.50
2023-05-09T23:32:11.250Z,1.05
2023-05-09T23:37:14.682Z,0.70
2023-05-09T23:42:19.508Z,1.50
2023-05-09T23:47:22.987Z,0.75
2023-05-09T23:52:26.564Z,1.23
2023-05-09T23:57:33.497Z,0.47
